sensor_id;sensor_type;location;lat;lon;timestamp;temperature;humidity
16517;DHT22;8371;52.272;9.746;2023-12-14T00:01:12;7.80;88.70
16517;DHT22;8371;52.272;9.746;2023-12-14T00:03:39;7.80;88.80
16517;DHT22;8371;52.272;9.746;2023-12-14T00:06:12;7.80;88.90
16517;DHT22;8371;52.272;9.746;2023-12-14T00:08:38;7.70;88.90
16517;DHT22;8371;52.272;9.746;2023-12-14T00:11:09;7.70;89.00
16517;DHT22;8371;52.272;9.746;2023-12-14T00:13:35;7.70;89.10
16517;DHT22;8371;52.272;9.746;2023-12-14T00:16:01;7.70;89.00
16517;DHT22;8371;52.272;9.746;2023-12-14T00:18:27;7.70;88.90
16517;DHT22;8371;52.272;9.746;2023-12-14T00:20:53;7.60;89.00
16517;DHT22;8371;52.272;9.746;2023-12-14T00:23:22;7.60;88.90
16517;DHT22;8371;52.272;9.746;2023-12-14T00:25:48;7.60;88.80
16517;DHT22;8371;52.272;9.746;2023-12-14T00:28:13;7.60;88.70
16517;DHT22;8371;52.272;9.746;2023-12-14T00:30:39;7.60;88.70
16517;DHT22;8371;52.272;9.746;2023-12-14T00:33:05;7.50;88.70
16517;DHT22;8371;52.272;9.746;2023-12-14T00:35:31;7.50;88.70
16517;DHT22;8371;52.272;9.746;2023-12-14T00:37:56;7.50;88.80
16517;DHT22;8371;52.272;9.746;2023-12-14T00:40:22;7.50;88.90
16517;DHT22;8371;52.272;9.746;2023-12-14T00:42:48;7.50;88.90
16517;DHT22;8371;52.272;9.746;2023-12-14T00:45:13;7.50;88.90
16517;DHT22;8371;52.272;9.746;2023-12-14T00:47:39;7.50;89.10
16517;DHT22;8371;52.272;9.746;2023-12-14T00:50:05;7.50;88.90
16517;DHT22;8371;52.272;9.746;2023-12-14T00:52:31;7.50;89.00
16517;DHT22;8371;52.272;9.746;2023-12-14T00:54:57;7.40;88.90
16517;DHT22;8371;52.272;9.746;2023-12-14T00:57:23;7.40;88.90
16517;DHT22;8371;52.272;9.746;2023-12-14T00:59:48;7.40;89.00
16517;DHT22;8371;52.272;9.746;2023-12-14T01:02:14;7.40;88.90
16517;DHT22;8371;52.272;9.746;2023-12-14T01:04:40;7.40;88.90
16517;DHT22;8371;52.272;9.746;2023-12-14T01:07:05;7.40;88.90
16517;DHT22;8371;52.272;9.746;2023-12-14T01:09:31;7.40;88.80
16517;DHT22;8371;52.272;9.746;2023-12-14T01:11:57;7.40;88.80
16517;DHT22;8371;52.272;9.746;2023-12-14T01:14:22;7.40;88.60
16517;DHT22;8371;52.272;9.746;2023-12-14T01:16:49;7.40;88.60
16517;DHT22;8371;52.272;9.746;2023-12-14T01:19:14;7.40;88.50
16517;DHT22;8371;52.272;9.746;2023-12-14T01:21:40;7.40;88.50
16517;DHT22;8371;52.272;9.746;2023-12-14T01:24:05;7.30;88.30
16517;DHT22;8371;52.272;9.746;2023-12-14T01:26:31;7.30;88.30
16517;DHT22;8371;52.272;9.746;2023-12-14T01:28:57;7.20;88.40
16517;DHT22;8371;52.272;9.746;2023-12-14T01:31:25;7.30;88.60
16517;DHT22;8371;52.272;9.746;2023-12-14T01:33:51;7.20;88.50
16517;DHT22;8371;52.272;9.746;2023-12-14T01:36:21;7.20;88.60
16517;DHT22;8371;52.272;9.746;2023-12-14T01:38:47;7.20;88.60
16517;DHT22;8371;52.272;9.746;2023-12-14T01:41:13;7.20;88.60
16517;DHT22;8371;52.272;9.746;2023-12-14T01:43:38;7.10;88.60
16517;DHT22;8371;52.272;9.746;2023-12-14T01:46:04;7.10;88.70
16517;DHT22;8371;52.272;9.746;2023-12-14T01:48:30;7.10;88.90
16517;DHT22;8371;52.272;9.746;2023-12-14T01:50:56;7.10;88.80
16517;DHT22;8371;52.272;9.746;2023-12-14T01:53:21;7.00;88.80
16517;DHT22;8371;52.272;9.746;2023-12-14T01:55:47;7.00;88.90
16517;DHT22;8371;52.272;9.746;2023-12-14T01:58:13;7.00;88.90
16517;DHT22;8371;52.272;9.746;2023-12-14T02:00:51;7.00;88.90
16517;DHT22;8371;52.272;9.746;2023-12-14T02:03:16;7.00;89.10
16517;DHT22;8371;52.272;9.746;2023-12-14T02:05:42;7.00;89.00
16517;DHT22;8371;52.272;9.746;2023-12-14T02:08:08;7.00;89.00
16517;DHT22;8371;52.272;9.746;2023-12-14T02:10:34;7.00;89.00
16517;DHT22;8371;52.272;9.746;2023-12-14T02:13:02;7.00;90.00
16517;DHT22;8371;52.272;9.746;2023-12-14T02:15:27;7.00;89.20
16517;DHT22;8371;52.272;9.746;2023-12-14T02:17:53;7.00;89.30
16517;DHT22;8371;52.272;9.746;2023-12-14T02:20:19;7.00;89.10
16517;DHT22;8371;52.272;9.746;2023-12-14T02:22:55;7.00;89.10
16517;DHT22;8371;52.272;9.746;2023-12-14T02:25:19;7.00;89.00
16517;DHT22;8371;52.272;9.746;2023-12-14T02:27:45;7.00;89.70
16517;DHT22;8371;52.272;9.746;2023-12-14T02:30:12;7.00;88.90
16517;DHT22;8371;52.272;9.746;2023-12-14T02:32:38;6.90;88.80
16517;DHT22;8371;52.272;9.746;2023-12-14T02:35:05;7.00;88.90
16517;DHT22;8371;52.272;9.746;2023-12-14T02:37:32;6.90;88.80
16517;DHT22;8371;52.272;9.746;2023-12-14T02:39:59;6.90;88.90
16517;DHT22;8371;52.272;9.746;2023-12-14T02:42:24;6.90;88.90
16517;DHT22;8371;52.272;9.746;2023-12-14T02:44:50;6.90;88.90
16517;DHT22;8371;52.272;9.746;2023-12-14T02:47:16;6.90;88.90
16517;DHT22;8371;52.272;9.746;2023-12-14T02:49:43;6.90;89.00
16517;DHT22;8371;52.272;9.746;2023-12-14T02:52:09;6.90;88.90
16517;DHT22;8371;52.272;9.746;2023-12-14T02:54:38;6.90;89.00
16517;DHT22;8371;52.272;9.746;2023-12-14T02:57:04;6.80;89.00
16517;DHT22;8371;52.272;9.746;2023-12-14T02:59:29;6.80;89.00
16517;DHT22;8371;52.272;9.746;2023-12-14T03:01:55;6.90;89.00
16517;DHT22;8371;52.272;9.746;2023-12-14T03:04:21;6.90;89.00
16517;DHT22;8371;52.272;9.746;2023-12-14T03:06:46;6.80;88.90
16517;DHT22;8371;52.272;9.746;2023-12-14T03:09:12;6.80;88.80
16517;DHT22;8371;52.272;9.746;2023-12-14T03:11:38;6.80;88.80
16517;DHT22;8371;52.272;9.746;2023-12-14T03:14:03;6.80;88.80
16517;DHT22;8371;52.272;9.746;2023-12-14T03:16:29;6.80;88.90
16517;DHT22;8371;52.272;9.746;2023-12-14T03:18:55;6.80;88.90
16517;DHT22;8371;52.272;9.746;2023-12-14T03:21:22;6.80;88.90
16517;DHT22;8371;52.272;9.746;2023-12-14T03:23:49;6.80;89.00
16517;DHT22;8371;52.272;9.746;2023-12-14T03:26:24;6.80;89.10
16517;DHT22;8371;52.272;9.746;2023-12-14T03:28:49;6.60;88.90
16517;DHT22;8371;52.272;9.746;2023-12-14T03:31:15;6.70;88.90
16517;DHT22;8371;52.272;9.746;2023-12-14T03:33:42;6.70;88.90
16517;DHT22;8371;52.272;9.746;2023-12-14T03:36:08;6.70;88.90
16517;DHT22;8371;52.272;9.746;2023-12-14T03:38:33;6.70;89.00
16517;DHT22;8371;52.272;9.746;2023-12-14T03:40:59;6.70;89.10
16517;DHT22;8371;52.272;9.746;2023-12-14T03:43:25;6.70;89.20
16517;DHT22;8371;52.272;9.746;2023-12-14T03:45:50;6.70;89.20
16517;DHT22;8371;52.272;9.746;2023-12-14T03:48:16;6.70;89.20
16517;DHT22;8371;52.272;9.746;2023-12-14T03:50:42;6.40;89.00
16517;DHT22;8371;52.272;9.746;2023-12-14T03:53:08;6.70;89.20
16517;DHT22;8371;52.272;9.746;2023-12-14T03:55:33;6.70;89.20
16517;DHT22;8371;52.272;9.746;2023-12-14T03:57:59;6.70;89.20
16517;DHT22;8371;52.272;9.746;2023-12-14T04:00:25;6.70;89.20
16517;DHT22;8371;52.272;9.746;2023-12-14T04:02:51;6.70;89.20
16517;DHT22;8371;52.272;9.746;2023-12-14T04:05:16;6.70;89.20
16517;DHT22;8371;52.272;9.746;2023-12-14T04:07:42;6.70;89.20
16517;DHT22;8371;52.272;9.746;2023-12-14T04:10:09;6.80;89.20
16517;DHT22;8371;52.272;9.746;2023-12-14T04:12:36;6.70;89.20
16517;DHT22;8371;52.272;9.746;2023-12-14T04:15:03;6.80;89.10
16517;DHT22;8371;52.272;9.746;2023-12-14T04:17:30;6.70;89.00
16517;DHT22;8371;52.272;9.746;2023-12-14T04:19:55;6.70;89.00
16517;DHT22;8371;52.272;9.746;2023-12-14T04:22:21;6.70;89.10
16517;DHT22;8371;52.272;9.746;2023-12-14T04:24:47;6.80;89.10
16517;DHT22;8371;52.272;9.746;2023-12-14T04:27:12;6.70;89.00
16517;DHT22;8371;52.272;9.746;2023-12-14T04:29:38;6.70;89.00
16517;DHT22;8371;52.272;9.746;2023-12-14T04:32:04;6.70;88.90
16517;DHT22;8371;52.272;9.746;2023-12-14T04:34:30;6.70;88.90
16517;DHT22;8371;52.272;9.746;2023-12-14T04:36:56;6.70;88.90
16517;DHT22;8371;52.272;9.746;2023-12-14T04:39:23;6.70;88.90
16517;DHT22;8371;52.272;9.746;2023-12-14T04:41:50;6.70;89.10
16517;DHT22;8371;52.272;9.746;2023-12-14T04:44:18;6.70;89.10
16517;DHT22;8371;52.272;9.746;2023-12-14T04:46:44;6.70;89.10
16517;DHT22;8371;52.272;9.746;2023-12-14T05:23:55;6.40;89.10
16517;DHT22;8371;52.272;9.746;2023-12-14T05:26:21;6.20;89.10
16517;DHT22;8371;52.272;9.746;2023-12-14T05:28:47;6.50;89.30
16517;DHT22;8371;52.272;9.746;2023-12-14T05:31:12;6.40;89.20
16517;DHT22;8371;52.272;9.746;2023-12-14T05:33:39;6.50;89.20
16517;DHT22;8371;52.272;9.746;2023-12-14T05:36:06;6.50;89.20
16517;DHT22;8371;52.272;9.746;2023-12-14T05:38:34;6.50;89.30
16517;DHT22;8371;52.272;9.746;2023-12-14T05:41:00;6.50;89.20
16517;DHT22;8371;52.272;9.746;2023-12-14T05:43:26;6.50;89.20
16517;DHT22;8371;52.272;9.746;2023-12-14T05:45:51;6.50;89.90
16517;DHT22;8371;52.272;9.746;2023-12-14T05:48:17;6.60;89.30
16517;DHT22;8371;52.272;9.746;2023-12-14T05:50:43;6.60;89.30
16517;DHT22;8371;52.272;9.746;2023-12-14T05:53:08;6.60;89.30
16517;DHT22;8371;52.272;9.746;2023-12-14T05:55:34;6.60;89.40
16517;DHT22;8371;52.272;9.746;2023-12-14T05:58:00;6.50;89.30
16517;DHT22;8371;52.272;9.746;2023-12-14T06:00:26;6.60;89.30
16517;DHT22;8371;52.272;9.746;2023-12-14T06:02:51;6.70;89.30
16517;DHT22;8371;52.272;9.746;2023-12-14T06:05:17;6.60;89.20
16517;DHT22;8371;52.272;9.746;2023-12-14T06:07:43;6.70;89.20
16517;DHT22;8371;52.272;9.746;2023-12-14T06:10:09;6.70;89.20
16517;DHT22;8371;52.272;9.746;2023-12-14T06:12:35;6.70;89.10
16517;DHT22;8371;52.272;9.746;2023-12-14T06:15:01;6.60;89.00
16517;DHT22;8371;52.272;9.746;2023-12-14T06:17:27;6.70;89.10
16517;DHT22;8371;52.272;9.746;2023-12-14T06:19:53;6.70;89.00
16517;DHT22;8371;52.272;9.746;2023-12-14T06:22:19;6.70;89.10
16517;DHT22;8371;52.272;9.746;2023-12-14T06:24:44;6.70;89.10
16517;DHT22;8371;52.272;9.746;2023-12-14T06:27:10;6.70;89.00
16517;DHT22;8371;52.272;9.746;2023-12-14T06:29:36;6.70;89.10
16517;DHT22;8371;52.272;9.746;2023-12-14T06:32:02;6.70;89.10
16517;DHT22;8371;52.272;9.746;2023-12-14T06:34:28;6.70;89.10
16517;DHT22;8371;52.272;9.746;2023-12-14T06:36:53;6.70;89.00
16517;DHT22;8371;52.272;9.746;2023-12-14T06:39:19;6.70;89.10
16517;DHT22;8371;52.272;9.746;2023-12-14T06:41:45;6.70;89.00
16517;DHT22;8371;52.272;9.746;2023-12-14T06:44:10;6.70;89.00
16517;DHT22;8371;52.272;9.746;2023-12-14T06:46:36;6.70;88.90
16517;DHT22;8371;52.272;9.746;2023-12-14T06:49:02;6.70;89.10
16517;DHT22;8371;52.272;9.746;2023-12-14T06:51:27;6.70;88.90
16517;DHT22;8371;52.272;9.746;2023-12-14T06:53:53;6.70;88.90
16517;DHT22;8371;52.272;9.746;2023-12-14T06:56:19;6.70;89.00
16517;DHT22;8371;52.272;9.746;2023-12-14T07:03:57;6.70;88.90
16517;DHT22;8371;52.272;9.746;2023-12-14T07:06:33;6.70;89.70
16517;DHT22;8371;52.272;9.746;2023-12-14T07:09:27;6.70;88.80
16517;DHT22;8371;52.272;9.746;2023-12-14T07:19:04;6.70;88.80
16517;DHT22;8371;52.272;9.746;2023-12-14T07:21:29;6.70;88.80
16517;DHT22;8371;52.272;9.746;2023-12-14T07:23:55;6.70;88.90
16517;DHT22;8371;52.272;9.746;2023-12-14T07:26:21;6.70;88.90
16517;DHT22;8371;52.272;9.746;2023-12-14T07:28:47;6.70;88.80
16517;DHT22;8371;52.272;9.746;2023-12-14T07:31:12;6.70;88.80
16517;DHT22;8371;52.272;9.746;2023-12-14T07:33:38;6.70;88.90
16517;DHT22;8371;52.272;9.746;2023-12-14T07:36:04;6.70;88.80
16517;DHT22;8371;52.272;9.746;2023-12-14T07:38:31;6.70;88.80
16517;DHT22;8371;52.272;9.746;2023-12-14T07:40:57;6.70;88.80
16517;DHT22;8371;52.272;9.746;2023-12-14T07:43:23;6.70;88.80
16517;DHT22;8371;52.272;9.746;2023-12-14T07:45:49;6.70;88.80
16517;DHT22;8371;52.272;9.746;2023-12-14T07:48:14;6.70;88.80
16517;DHT22;8371;52.272;9.746;2023-12-14T07:50:40;6.70;88.10
16517;DHT22;8371;52.272;9.746;2023-12-14T07:53:06;6.70;88.80
16517;DHT22;8371;52.272;9.746;2023-12-14T07:55:32;6.70;88.80
16517;DHT22;8371;52.272;9.746;2023-12-14T07:58:36;6.70;88.80
16517;DHT22;8371;52.272;9.746;2023-12-14T08:01:14;6.70;88.90
16517;DHT22;8371;52.272;9.746;2023-12-14T08:03:44;6.80;88.90
16517;DHT22;8371;52.272;9.746;2023-12-14T08:09:02;7.00;89.10
16517;DHT22;8371;52.272;9.746;2023-12-14T08:11:28;6.70;88.80
16517;DHT22;8371;52.272;9.746;2023-12-14T08:13:54;6.70;88.90
16517;DHT22;8371;52.272;9.746;2023-12-14T08:16:25;6.80;89.00
16517;DHT22;8371;52.272;9.746;2023-12-14T08:19:12;6.80;89.00
16517;DHT22;8371;52.272;9.746;2023-12-14T08:21:57;6.80;88.90
16517;DHT22;8371;52.272;9.746;2023-12-14T08:24:35;7.00;89.00
16517;DHT22;8371;52.272;9.746;2023-12-14T08:27:05;6.60;88.70
16517;DHT22;8371;52.272;9.746;2023-12-14T08:29:35;6.80;88.90
16517;DHT22;8371;52.272;9.746;2023-12-14T08:32:03;6.60;88.80
16517;DHT22;8371;52.272;9.746;2023-12-14T08:34:45;6.80;88.90
16517;DHT22;8371;52.272;9.746;2023-12-14T08:37:33;6.80;88.90
16517;DHT22;8371;52.272;9.746;2023-12-14T08:40:21;6.60;88.70
16517;DHT22;8371;52.272;9.746;2023-12-14T08:42:57;6.70;88.80
16517;DHT22;8371;52.272;9.746;2023-12-14T08:45:28;6.80;88.80
16517;DHT22;8371;52.272;9.746;2023-12-14T08:48:01;6.80;88.90
16517;DHT22;8371;52.272;9.746;2023-12-14T08:52:56;6.90;88.90
16517;DHT22;8371;52.272;9.746;2023-12-14T08:57:58;6.80;88.80
16517;DHT22;8371;52.272;9.746;2023-12-14T09:02:57;6.80;88.80
16517;DHT22;8371;52.272;9.746;2023-12-14T09:05:31;6.80;88.60
16517;DHT22;8371;52.272;9.746;2023-12-14T09:07:59;6.70;88.60
16517;DHT22;8371;52.272;9.746;2023-12-14T09:10:25;6.70;88.60
16517;DHT22;8371;52.272;9.746;2023-12-14T09:12:51;6.70;88.60
16517;DHT22;8371;52.272;9.746;2023-12-14T09:15:17;6.70;88.70
16517;DHT22;8371;52.272;9.746;2023-12-14T09:17:43;6.70;88.70
16517;DHT22;8371;52.272;9.746;2023-12-14T09:20:09;6.70;88.80
16517;DHT22;8371;52.272;9.746;2023-12-14T09:22:36;6.70;89.00
16517;DHT22;8371;52.272;9.746;2023-12-14T09:25:02;6.70;88.80
16517;DHT22;8371;52.272;9.746;2023-12-14T09:27:29;6.70;88.90
16517;DHT22;8371;52.272;9.746;2023-12-14T09:29:55;6.70;89.00
16517;DHT22;8371;52.272;9.746;2023-12-14T09:32:21;6.60;89.10
16517;DHT22;8371;52.272;9.746;2023-12-14T09:34:47;6.70;89.20
16517;DHT22;8371;52.272;9.746;2023-12-14T09:37:13;6.70;89.30
16517;DHT22;8371;52.272;9.746;2023-12-14T09:39:39;6.70;89.30
16517;DHT22;8371;52.272;9.746;2023-12-14T09:42:07;6.70;89.50
16517;DHT22;8371;52.272;9.746;2023-12-14T09:44:35;6.80;89.50
16517;DHT22;8371;52.272;9.746;2023-12-14T09:47:02;6.80;89.60
16517;DHT22;8371;52.272;9.746;2023-12-14T09:49:45;6.80;89.60
16517;DHT22;8371;52.272;9.746;2023-12-14T09:52:11;6.70;89.40
16517;DHT22;8371;52.272;9.746;2023-12-14T09:54:36;6.90;89.40
16517;DHT22;8371;52.272;9.746;2023-12-14T09:57:02;6.90;89.40
16517;DHT22;8371;52.272;9.746;2023-12-14T09:59:28;6.90;89.20
16517;DHT22;8371;52.272;9.746;2023-12-14T10:02:11;6.90;90.00
16517;DHT22;8371;52.272;9.746;2023-12-14T10:04:38;7.00;89.20
16517;DHT22;8371;52.272;9.746;2023-12-14T10:07:03;7.00;89.10
16517;DHT22;8371;52.272;9.746;2023-12-14T10:09:31;7.00;89.20
16517;DHT22;8371;52.272;9.746;2023-12-14T10:12:08;7.00;89.40
16517;DHT22;8371;52.272;9.746;2023-12-14T10:14:35;7.00;89.20
16517;DHT22;8371;52.272;9.746;2023-12-14T11:32:15;7.60;88.80
16517;DHT22;8371;52.272;9.746;2023-12-14T11:34:40;7.60;88.80
16517;DHT22;8371;52.272;9.746;2023-12-14T11:37:06;7.60;88.80
16517;DHT22;8371;52.272;9.746;2023-12-14T11:39:31;7.60;88.70
16517;DHT22;8371;52.272;9.746;2023-12-14T11:42:03;7.60;88.70
16517;DHT22;8371;52.272;9.746;2023-12-14T11:44:29;7.60;88.60
16517;DHT22;8371;52.272;9.746;2023-12-14T11:46:56;7.70;88.70
16517;DHT22;8371;52.272;9.746;2023-12-14T11:49:25;7.60;88.60
16517;DHT22;8371;52.272;9.746;2023-12-14T11:51:55;7.60;88.50
16517;DHT22;8371;52.272;9.746;2023-12-14T11:54:21;7.60;88.50
16517;DHT22;8371;52.272;9.746;2023-12-14T11:56:48;7.60;88.50
16517;DHT22;8371;52.272;9.746;2023-12-14T12:05:07;7.50;88.30
16517;DHT22;8371;52.272;9.746;2023-12-14T12:10:07;7.60;88.40
16517;DHT22;8371;52.272;9.746;2023-12-14T12:12:33;7.50;88.40
16517;DHT22;8371;52.272;9.746;2023-12-14T12:15:00;7.50;88.40
16517;DHT22;8371;52.272;9.746;2023-12-14T12:17:26;7.50;88.40
16517;DHT22;8371;52.272;9.746;2023-12-14T12:19:52;7.50;88.50
16517;DHT22;8371;52.272;9.746;2023-12-14T12:22:18;7.50;88.50
16517;DHT22;8371;52.272;9.746;2023-12-14T12:24:44;7.50;88.60
16517;DHT22;8371;52.272;9.746;2023-12-14T12:27:10;7.50;88.60
16517;DHT22;8371;52.272;9.746;2023-12-14T12:29:35;7.60;88.70
16517;DHT22;8371;52.272;9.746;2023-12-14T12:32:01;7.60;88.60
16517;DHT22;8371;52.272;9.746;2023-12-14T12:34:29;7.60;88.60
16517;DHT22;8371;52.272;9.746;2023-12-14T12:36:56;7.60;88.50
16517;DHT22;8371;52.272;9.746;2023-12-14T12:39:29;7.50;88.50
16517;DHT22;8371;52.272;9.746;2023-12-14T12:41:54;7.60;88.10
16517;DHT22;8371;52.272;9.746;2023-12-14T12:44:19;7.60;88.60
16517;DHT22;8371;52.272;9.746;2023-12-14T12:46:45;7.60;88.60
16517;DHT22;8371;52.272;9.746;2023-12-14T12:49:11;7.60;88.60
16517;DHT22;8371;52.272;9.746;2023-12-14T12:51:37;7.60;88.60
16517;DHT22;8371;52.272;9.746;2023-12-14T12:54:03;7.60;88.60
16517;DHT22;8371;52.272;9.746;2023-12-14T12:56:29;7.60;88.70
16517;DHT22;8371;52.272;9.746;2023-12-14T12:58:55;7.60;88.70
16517;DHT22;8371;52.272;9.746;2023-12-14T13:01:24;7.60;88.80
16517;DHT22;8371;52.272;9.746;2023-12-14T13:03:54;7.60;88.60
16517;DHT22;8371;52.272;9.746;2023-12-14T13:06:25;7.70;88.80
16517;DHT22;8371;52.272;9.746;2023-12-14T13:08:52;7.70;88.80
16517;DHT22;8371;52.272;9.746;2023-12-14T13:11:19;7.70;88.80
16517;DHT22;8371;52.272;9.746;2023-12-14T13:13:45;7.70;88.70
16517;DHT22;8371;52.272;9.746;2023-12-14T13:16:11;7.70;88.60
16517;DHT22;8371;52.272;9.746;2023-12-14T13:18:42;7.70;88.80
16517;DHT22;8371;52.272;9.746;2023-12-14T13:21:08;7.70;88.60
16517;DHT22;8371;52.272;9.746;2023-12-14T13:23:34;7.70;88.00
16517;DHT22;8371;52.272;9.746;2023-12-14T13:26:00;7.80;88.60
16517;DHT22;8371;52.272;9.746;2023-12-14T13:28:25;7.70;88.50
16517;DHT22;8371;52.272;9.746;2023-12-14T13:30:51;7.70;88.50
16517;DHT22;8371;52.272;9.746;2023-12-14T13:33:17;7.70;88.50
16517;DHT22;8371;52.272;9.746;2023-12-14T13:35:43;7.80;88.60
16517;DHT22;8371;52.272;9.746;2023-12-14T13:38:09;7.80;88.70
16517;DHT22;8371;52.272;9.746;2023-12-14T13:40:34;7.80;88.70
16517;DHT22;8371;52.272;9.746;2023-12-14T13:43:00;7.80;88.70
16517;DHT22;8371;52.272;9.746;2023-12-14T13:45:28;7.80;88.70
16517;DHT22;8371;52.272;9.746;2023-12-14T13:47:58;7.80;88.70
16517;DHT22;8371;52.272;9.746;2023-12-14T13:50:24;7.80;88.60
16517;DHT22;8371;52.272;9.746;2023-12-14T13:52:51;7.80;88.60
16517;DHT22;8371;52.272;9.746;2023-12-14T13:55:17;7.80;88.60
16517;DHT22;8371;52.272;9.746;2023-12-14T13:57:43;7.80;88.60
16517;DHT22;8371;52.272;9.746;2023-12-14T14:00:10;7.80;88.60
16517;DHT22;8371;52.272;9.746;2023-12-14T14:02:37;7.80;88.70
16517;DHT22;8371;52.272;9.746;2023-12-14T14:05:03;8.00;88.70
16517;DHT22;8371;52.272;9.746;2023-12-14T14:07:29;7.80;88.60
16517;DHT22;8371;52.272;9.746;2023-12-14T14:09:55;7.80;89.40
16517;DHT22;8371;52.272;9.746;2023-12-14T14:12:23;7.80;88.60
16517;DHT22;8371;52.272;9.746;2023-12-14T14:14:52;7.90;88.70
16517;DHT22;8371;52.272;9.746;2023-12-14T14:17:18;7.80;88.60
16517;DHT22;8371;52.272;9.746;2023-12-14T14:19:44;7.80;88.50
16517;DHT22;8371;52.272;9.746;2023-12-14T14:22:09;7.90;88.60
16517;DHT22;8371;52.272;9.746;2023-12-14T14:24:35;7.90;88.50
16517;DHT22;8371;52.272;9.746;2023-12-14T14:27:01;7.80;88.40
16517;DHT22;8371;52.272;9.746;2023-12-14T14:29:27;7.80;88.40
16517;DHT22;8371;52.272;9.746;2023-12-14T14:31:53;7.90;88.40
16517;DHT22;8371;52.272;9.746;2023-12-14T14:34:18;7.90;88.50
16517;DHT22;8371;52.272;9.746;2023-12-14T14:36:44;7.80;88.30
16517;DHT22;8371;52.272;9.746;2023-12-14T14:39:11;7.90;88.40
16517;DHT22;8371;52.272;9.746;2023-12-14T14:41:38;7.80;88.30
16517;DHT22;8371;52.272;9.746;2023-12-14T14:44:04;7.80;88.90
16517;DHT22;8371;52.272;9.746;2023-12-14T14:46:30;7.80;88.30
16517;DHT22;8371;52.272;9.746;2023-12-14T14:48:56;7.90;88.40
16517;DHT22;8371;52.272;9.746;2023-12-14T14:51:22;7.80;88.30
16517;DHT22;8371;52.272;9.746;2023-12-14T14:53:50;7.80;89.00
16517;DHT22;8371;52.272;9.746;2023-12-14T14:56:16;7.80;88.20
16517;DHT22;8371;52.272;9.746;2023-12-14T14:58:42;7.70;88.10
16517;DHT22;8371;52.272;9.746;2023-12-14T15:01:09;7.80;88.10
16517;DHT22;8371;52.272;9.746;2023-12-14T15:03:38;7.80;88.10
16517;DHT22;8371;52.272;9.746;2023-12-14T15:06:04;7.80;88.10
16517;DHT22;8371;52.272;9.746;2023-12-14T15:08:30;7.70;88.00
16517;DHT22;8371;52.272;9.746;2023-12-14T15:10:56;7.70;87.90
16517;DHT22;8371;52.272;9.746;2023-12-14T15:13:23;7.70;88.00
16517;DHT22;8371;52.272;9.746;2023-12-14T15:15:49;7.60;87.90
16517;DHT22;8371;52.272;9.746;2023-12-14T15:18:16;7.60;88.00
16517;DHT22;8371;52.272;9.746;2023-12-14T15:20:42;7.70;88.00
16517;DHT22;8371;52.272;9.746;2023-12-14T15:23:08;7.60;88.00
16517;DHT22;8371;52.272;9.746;2023-12-14T15:25:34;7.60;88.00
16517;DHT22;8371;52.272;9.746;2023-12-14T15:28:00;7.60;88.90
16517;DHT22;8371;52.272;9.746;2023-12-14T15:30:26;7.60;88.10
16517;DHT22;8371;52.272;9.746;2023-12-14T15:32:52;7.60;88.10
16517;DHT22;8371;52.272;9.746;2023-12-14T15:35:18;7.50;88.20
16517;DHT22;8371;52.272;9.746;2023-12-14T15:37:43;7.50;88.80
16517;DHT22;8371;52.272;9.746;2023-12-14T15:40:09;7.50;88.10
16517;DHT22;8371;52.272;9.746;2023-12-14T15:42:35;7.50;88.00
16517;DHT22;8371;52.272;9.746;2023-12-14T15:45:01;7.50;88.00
16517;DHT22;8371;52.272;9.746;2023-12-14T15:47:29;7.40;87.80
16517;DHT22;8371;52.272;9.746;2023-12-14T15:49:55;7.40;87.70
16517;DHT22;8371;52.272;9.746;2023-12-14T15:52:21;7.40;87.60
16517;DHT22;8371;52.272;9.746;2023-12-14T15:54:47;7.40;87.40
16517;DHT22;8371;52.272;9.746;2023-12-14T15:57:13;7.30;87.30
16517;DHT22;8371;52.272;9.746;2023-12-14T15:59:39;7.20;87.10
16517;DHT22;8371;52.272;9.746;2023-12-14T16:02:05;7.10;87.00
16517;DHT22;8371;52.272;9.746;2023-12-14T16:04:31;7.00;86.70
16517;DHT22;8371;52.272;9.746;2023-12-14T16:06:56;7.00;86.70
16517;DHT22;8371;52.272;9.746;2023-12-14T16:09:24;6.90;86.90
16517;DHT22;8371;52.272;9.746;2023-12-14T16:11:50;6.80;87.00
16517;DHT22;8371;52.272;9.746;2023-12-14T16:14:20;6.70;86.90
16517;DHT22;8371;52.272;9.746;2023-12-14T16:16:46;6.70;87.00
16517;DHT22;8371;52.272;9.746;2023-12-14T16:19:14;6.60;87.00
16517;DHT22;8371;52.272;9.746;2023-12-14T16:21:40;6.40;86.90
16517;DHT22;8371;52.272;9.746;2023-12-14T16:24:06;6.40;87.10
16517;DHT22;8371;52.272;9.746;2023-12-14T16:26:32;6.40;87.20
16517;DHT22;8371;52.272;9.746;2023-12-14T16:29:00;6.30;87.20
16517;DHT22;8371;52.272;9.746;2023-12-14T16:31:26;6.30;87.20
16517;DHT22;8371;52.272;9.746;2023-12-14T16:33:52;6.20;87.50
16517;DHT22;8371;52.272;9.746;2023-12-14T16:36:17;6.20;87.80
16517;DHT22;8371;52.272;9.746;2023-12-14T16:38:43;6.10;88.10
16517;DHT22;8371;52.272;9.746;2023-12-14T16:41:13;6.10;88.30
16517;DHT22;8371;52.272;9.746;2023-12-14T16:43:39;6.10;88.60
16517;DHT22;8371;52.272;9.746;2023-12-14T16:46:08;6.10;88.70
16517;DHT22;8371;52.272;9.746;2023-12-14T16:48:34;6.10;88.90
16517;DHT22;8371;52.272;9.746;2023-12-14T16:51:03;6.20;89.10
16517;DHT22;8371;52.272;9.746;2023-12-14T16:53:29;6.20;89.20
16517;DHT22;8371;52.272;9.746;2023-12-14T16:55:55;6.00;89.20
16517;DHT22;8371;52.272;9.746;2023-12-14T16:58:25;6.30;89.40
16517;DHT22;8371;52.272;9.746;2023-12-14T17:00:52;6.30;89.40
16517;DHT22;8371;52.272;9.746;2023-12-14T17:03:20;6.30;89.40
16517;DHT22;8371;52.272;9.746;2023-12-14T17:05:46;6.40;89.50
16517;DHT22;8371;52.272;9.746;2023-12-14T17:08:11;6.40;89.50
16517;DHT22;8371;52.272;9.746;2023-12-14T17:10:37;6.50;89.50
16517;DHT22;8371;52.272;9.746;2023-12-14T17:13:03;6.50;89.50
16517;DHT22;8371;52.272;9.746;2023-12-14T17:15:29;6.50;89.50
16517;DHT22;8371;52.272;9.746;2023-12-14T17:17:58;6.50;89.50
16517;DHT22;8371;52.272;9.746;2023-12-14T17:20:23;6.50;89.50
16517;DHT22;8371;52.272;9.746;2023-12-14T17:22:48;6.70;89.50
16517;DHT22;8371;52.272;9.746;2023-12-14T17:25:14;6.60;89.40
16517;DHT22;8371;52.272;9.746;2023-12-14T17:27:40;6.70;89.50
16517;DHT22;8371;52.272;9.746;2023-12-14T17:30:07;6.70;89.50
16517;DHT22;8371;52.272;9.746;2023-12-14T17:32:34;6.70;89.40
16517;DHT22;8371;52.272;9.746;2023-12-14T17:35:00;6.50;89.30
16517;DHT22;8371;52.272;9.746;2023-12-14T17:37:26;6.70;89.40
16517;DHT22;8371;52.272;9.746;2023-12-14T17:39:53;6.70;89.30
16517;DHT22;8371;52.272;9.746;2023-12-14T17:42:19;6.80;89.40
16517;DHT22;8371;52.272;9.746;2023-12-14T17:44:45;6.70;89.30
16517;DHT22;8371;52.272;9.746;2023-12-14T17:47:12;6.80;89.40
16517;DHT22;8371;52.272;9.746;2023-12-14T17:49:38;6.80;89.40
16517;DHT22;8371;52.272;9.746;2023-12-14T17:52:04;6.80;89.30
16517;DHT22;8371;52.272;9.746;2023-12-14T17:54:30;6.80;89.20
16517;DHT22;8371;52.272;9.746;2023-12-14T17:56:56;6.80;89.20
16517;DHT22;8371;52.272;9.746;2023-12-14T17:59:21;6.80;89.20
16517;DHT22;8371;52.272;9.746;2023-12-14T18:01:47;6.80;89.30
16517;DHT22;8371;52.272;9.746;2023-12-14T18:04:14;6.80;89.20
16517;DHT22;8371;52.272;9.746;2023-12-14T18:06:46;6.80;89.10
16517;DHT22;8371;52.272;9.746;2023-12-14T18:09:09;6.80;89.00
16517;DHT22;8371;52.272;9.746;2023-12-14T18:11:36;6.80;89.00
16517;DHT22;8371;52.272;9.746;2023-12-14T18:14:03;6.80;88.90
16517;DHT22;8371;52.272;9.746;2023-12-14T18:16:29;6.80;88.80
16517;DHT22;8371;52.272;9.746;2023-12-14T18:18:55;6.80;88.70
16517;DHT22;8371;52.272;9.746;2023-12-14T18:21:21;6.70;88.60